Time;durP1;ratioP1;P1;durP2;ratioP2;P2;SDS_P1;SDS_P2;PMS_P1;PMS_P2;Temp;Humidity;BMP_temperature;BMP_pressure;BME280_temperature;BME280_humidity;BME280_pressure;Samples;Min_cycle;Max_cycle;Signal;HPM_P1;HPM_P2
2022/08/18 00:01:09;;;;;;;9.67;8.90;;;18.30;99.90;;;;;;5033365;28;20178;-62
2022/08/18 00:03:34;;;;;;;9.27;8.50;;;18.30;99.90;;;;;;5048430;28;20489;-62
2022/08/18 00:06:00;;;;;;;11.20;9.70;;;18.30;99.90;;;;;;5032597;28;20444;-62
2022/08/18 00:08:27;;;;;;;8.67;7.97;;;18.20;99.90;;;;;;5035129;28;20335;-62
2022/08/18 00:10:54;;;;;;;9.80;8.90;;;18.20;99.90;;;;;;5041045;28;20182;-62
2022/08/18 00:13:19;;;;;;;10.47;9.50;;;18.20;99.90;;;;;;5015614;28;20450;-62
2022/08/18 00:15:45;;;;;;;8.50;7.90;;;18.20;99.90;;;;;;5022562;28;20461;-63
2022/08/18 00:18:10;;;;;;;8.60;7.90;;;18.20;99.90;;;;;;5033600;28;20190;-63
2022/08/18 00:20:36;;;;;;;8.70;8.00;;;18.30;99.90;;;;;;5025050;28;20198;-62
2022/08/18 00:23:01;;;;;;;10.40;9.60;;;18.30;99.90;;;;;;5040149;28;20179;-62
2022/08/18 00:25:27;;;;;;;11.13;10.23;;;18.40;99.90;;;;;;5025760;28;20233;-62
2022/08/18 00:27:52;;;;;;;9.27;8.57;;;18.40;99.90;;;;;;5033048;28;20296;-62
2022/08/18 00:30:20;;;;;;;9.93;9.10;;;18.40;99.90;;;;;;5026752;28;20190;-63
2022/08/18 00:32:50;;;;;;;9.07;8.43;;;18.50;99.90;;;;;;5029540;28;20667;-63
2022/08/18 00:35:29;;;;;;;8.93;8.13;;;18.70;99.90;;;;;;5020839;28;20528;-62
2022/08/18 00:37:56;;;;;;;8.50;7.90;;;18.80;99.90;;;;;;5039420;28;20442;-63
2022/08/18 00:40:27;;;;;;;9.17;8.33;;;18.90;99.90;;;;;;5031544;28;20469;-63
2022/08/18 00:42:56;;;;;;;9.60;8.90;;;18.90;99.90;;;;;;5034389;28;20470;-62
2022/08/18 00:45:26;;;;;;;10.63;9.83;;;19.00;99.90;;;;;;5034965;28;20781;-62
2022/08/18 00:47:52;;;;;;;9.53;8.70;;;19.00;99.90;;;;;;5037206;28;20914;-62
2022/08/18 00:50:53;;;;;;;9.40;8.73;;;19.10;99.90;;;;;;5021752;28;20434;-63
2022/08/18 00:53:18;;;;;;;8.63;8.00;;;19.10;99.90;;;;;;5016948;28;20454;-62
2022/08/18 00:55:47;;;;;;;9.33;8.53;;;19.20;99.90;;;;;;5032574;28;20468;-62
2022/08/18 00:58:17;;;;;;;9.07;8.23;;;19.20;99.90;;;;;;5059233;23;20229;-63
2022/08/18 01:00:44;;;;;;;9.10;8.40;;;19.20;99.90;;;;;;5046089;28;20878;-63
2022/08/18 01:03:15;;;;;;;7.57;7.07;;;19.30;99.90;;;;;;5053343;28;20485;-63
2022/08/18 01:06:16;;;;;;;9.30;8.50;;;19.40;99.90;;;;;;5045892;28;20435;-62
2022/08/18 01:08:42;;;;;;;8.13;7.50;;;19.40;99.90;;;;;;5015062;28;20492;-63
2022/08/18 01:11:09;;;;;;;8.43;7.83;;;19.40;99.90;;;;;;5031422;28;20428;-63
2022/08/18 01:13:37;;;;;;;9.80;9.00;;;19.50;99.90;;;;;;5029289;28;20433;-63
2022/08/18 01:21:49;;;;;;;9.77;8.87;;;19.40;99.90;;;;;;5022669;28;20442;-63
2022/08/18 01:21:50;;;;;;;9.80;9.00;;;19.10;99.90;;;;;;5027104;28;20507;-63
2022/08/18 01:24:17;;;;;;;9.47;8.60;;;19.20;99.90;;;;;;5029821;28;20433;-65
2022/08/18 01:26:49;;;;;;;9.17;8.47;;;19.30;99.90;;;;;;5030245;28;20453;-64
2022/08/18 01:29:17;;;;;;;12.47;11.47;;;19.10;99.90;;;;;;5017226;28;20445;-64
2022/08/18 01:31:55;;;;;;;10.30;9.50;;;19.20;99.90;;;;;;5031280;28;20443;-64
2022/08/18 01:34:26;;;;;;;9.47;8.53;;;19.30;99.90;;;;;;5030562;28;20444;-65
2022/08/18 01:36:52;;;;;;;9.10;8.47;;;19.30;99.90;;;;;;5028191;28;20547;-64
2022/08/18 01:39:19;;;;;;;9.70;8.90;;;19.30;99.90;;;;;;5026586;28;20456;-64
2022/08/18 01:41:44;;;;;;;8.77;8.17;;;19.30;99.90;;;;;;5025499;28;20444;-64
2022/08/18 01:44:10;;;;;;;9.77;8.77;;;19.30;99.90;;;;;;5030901;28;20905;-64
2022/08/18 01:46:38;;;;;;;8.63;7.93;;;19.30;99.90;;;;;;5028338;28;20209;-64
2022/08/18 01:49:06;;;;;;;9.07;8.37;;;19.20;99.90;;;;;;5024910;28;20322;-64
2022/08/18 01:51:33;;;;;;;9.90;9.20;;;19.30;99.90;;;;;;5032070;28;20452;-64
2022/08/18 01:53:59;;;;;;;9.70;9.00;;;19.40;99.90;;;;;;5029791;28;20822;-65
2022/08/18 01:56:26;;;;;;;8.73;8.03;;;19.30;99.90;;;;;;5022972;28;20491;-65
2022/08/18 01:58:52;;;;;;;8.00;7.37;;;19.40;99.90;;;;;;5026689;28;20496;-65
2022/08/18 02:01:18;;;;;;;8.33;7.63;;;19.30;99.90;;;;;;5031733;28;20479;-65
2022/08/18 02:03:50;;;;;;;8.30;7.70;;;19.20;99.90;;;;;;5029933;28;20440;-64
2022/08/18 02:06:18;;;;;;;8.73;8.03;;;19.20;99.90;;;;;;5030359;28;20642;-65
2022/08/18 02:08:44;;;;;;;7.80;7.30;;;19.20;99.90;;;;;;5031866;28;20855;-65
2022/08/18 02:11:09;;;;;;;9.00;8.23;;;19.20;99.90;;;;;;5023692;28;20442;-64
2022/08/18 02:13:35;;;;;;;8.93;8.33;;;19.20;99.90;;;;;;5029941;28;20437;-64
2022/08/18 02:16:01;;;;;;;10.00;9.30;;;19.20;99.90;;;;;;5024700;28;20183;-65
2022/08/18 02:18:30;;;;;;;8.30;7.60;;;19.20;99.90;;;;;;5030319;28;20530;-65
2022/08/18 02:20:58;;;;;;;8.80;8.20;;;19.30;99.90;;;;;;5028952;28;20718;-65
2022/08/18 02:23:24;;;;;;;8.80;7.90;;;19.50;99.90;;;;;;5030659;28;20670;-65
2022/08/18 02:25:50;;;;;;;9.10;8.30;;;19.50;99.90;;;;;;5029188;28;20440;-65
2022/08/18 02:28:16;;;;;;;7.87;7.33;;;19.50;99.90;;;;;;5028387;28;20483;-65
2022/08/18 02:30:42;;;;;;;8.90;8.20;;;19.50;99.90;;;;;;5017440;28;20183;-65
2022/08/18 02:33:09;;;;;;;8.40;7.70;;;19.30;99.90;;;;;;5020436;28;20444;-64
2022/08/18 02:35:37;;;;;;;9.63;8.93;;;19.30;99.90;;;;;;5028541;28;20436;-65
2022/08/18 02:38:04;;;;;;;7.90;7.30;;;19.30;99.90;;;;;;5030506;28;21050;-64
2022/08/18 02:40:32;;;;;;;8.93;8.27;;;19.40;99.90;;;;;;5030308;28;20815;-65
2022/08/18 02:42:58;;;;;;;10.17;9.43;;;19.40;99.90;;;;;;5019641;28;20926;-64
2022/08/18 02:45:24;;;;;;;8.67;7.57;;;19.40;99.90;;;;;;5022345;28;20448;-64
2022/08/18 02:47:54;;;;;;;9.97;9.17;;;19.40;99.90;;;;;;5030568;28;20698;-65
2022/08/18 02:50:20;;;;;;;7.57;6.93;;;19.40;99.90;;;;;;5030695;28;20186;-65
2022/08/18 02:52:45;;;;;;;9.30;8.57;;;19.50;99.90;;;;;;5027241;28;20482;-64
2022/08/18 02:55:11;;;;;;;8.60;8.00;;;19.50;99.90;;;;;;5031668;28;20444;-65
2022/08/18 02:57:41;;;;;;;9.13;8.23;;;19.50;99.90;;;;;;5026361;28;20739;-64
2022/08/18 03:00:10;;;;;;;8.67;8.07;;;19.50;99.90;;;;;;5019927;28;20210;-64
2022/08/18 03:02:37;;;;;;;8.07;7.47;;;19.50;99.90;;;;;;5021976;28;20530;-65
2022/08/18 03:05:03;;;;;;;8.73;8.03;;;19.50;99.90;;;;;;5024383;28;20960;-64
2022/08/18 03:07:28;;;;;;;9.43;8.73;;;19.50;99.90;;;;;;5029398;28;20944;-65
2022/08/18 03:09:54;;;;;;;9.73;8.93;;;19.60;99.90;;;;;;5028303;28;20472;-64
2022/08/18 03:12:19;;;;;;;9.67;8.87;;;19.70;99.90;;;;;;5029935;28;20182;-64
2022/08/18 03:14:45;;;;;;;9.60;8.80;;;19.70;99.90;;;;;;5030060;28;20182;-64
2022/08/18 03:17:13;;;;;;;9.53;8.83;;;19.70;99.90;;;;;;5021295;28;20246;-64
2022/08/18 03:19:39;;;;;;;9.13;8.57;;;19.60;99.90;;;;;;5013552;28;20195;-65
2022/08/18 03:22:07;;;;;;;9.13;8.23;;;19.50;99.90;;;;;;5025940;28;20828;-66
2022/08/18 03:24:33;;;;;;;8.93;8.33;;;19.50;99.90;;;;;;5018978;28;20257;-65
2022/08/18 03:27:02;;;;;;;9.27;8.50;;;19.60;99.90;;;;;;5028829;28;20461;-65
2022/08/18 03:29:28;;;;;;;9.70;8.90;;;19.50;99.90;;;;;;5034786;28;20449;-65
2022/08/18 03:31:54;;;;;;;9.10;8.40;;;19.50;99.90;;;;;;5034897;28;20441;-65
2022/08/18 03:34:20;;;;;;;10.30;9.40;;;19.40;99.90;;;;;;5036202;28;20178;-65
2022/08/18 03:36:46;;;;;;;9.30;8.60;;;19.40;99.90;;;;;;5034221;28;20260;-65
2022/08/18 03:39:12;;;;;;;9.07;8.47;;;19.40;99.90;;;;;;5031441;28;20255;-65
2022/08/18 03:41:42;;;;;;;9.93;9.20;;;19.20;99.90;;;;;;5030591;28;20452;-65
2022/08/18 03:44:08;;;;;;;9.53;8.83;;;19.10;99.90;;;;;;5023623;28;20441;-65
2022/08/18 03:46:34;;;;;;;10.07;8.77;;;19.10;99.90;;;;;;5026664;28;20453;-65
2022/08/18 03:49:00;;;;;;;9.70;8.70;;;19.10;99.90;;;;;;5030025;28;20972;-66
2022/08/18 03:51:30;;;;;;;9.57;8.80;;;19.20;99.90;;;;;;5030223;28;20705;-65
2022/08/18 03:53:59;;;;;;;10.10;9.30;;;19.20;99.90;;;;;;5030519;28;20436;-65
2022/08/18 03:56:27;;;;;;;9.20;8.50;;;19.20;99.90;;;;;;5021588;28;20476;-65
2022/08/18 03:58:57;;;;;;;9.10;8.50;;;19.30;99.90;;;;;;5027350;28;20437;-65
2022/08/18 04:01:26;;;;;;;9.60;8.83;;;19.20;99.90;;;;;;5027786;28;20445;-65
2022/08/18 04:03:55;;;;;;;10.47;9.67;;;19.10;99.90;;;;;;5029252;28;20440;-65
2022/08/18 04:06:31;;;;;;;10.20;9.30;;;19.20;99.90;;;;;;5022739;28;20441;-65
2022/08/18 04:08:59;;;;;;;9.43;8.70;;;19.20;99.90;;;;;;5027516;28;20444;-65
2022/08/18 04:11:27;;;;;;;10.13;9.33;;;19.20;99.90;;;;;;5027764;28;20547;-65
2022/08/18 04:13:58;;;;;;;10.00;9.23;;;19.20;99.90;;;;;;5029673;28;20793;-65
2022/08/18 04:16:31;;;;;;;10.33;9.43;;;19.20;99.90;;;;;;5026703;28;20464;-65
2022/08/18 04:19:00;;;;;;;10.70;9.80;;;19.30;99.90;;;;;;5026884;28;20959;-65
2022/08/18 04:21:26;;;;;;;9.43;8.63;;;19.20;99.90;;;;;;5024241;28;20436;-65
2022/08/18 04:23:51;;;;;;;10.00;9.17;;;19.20;99.90;;;;;;5029305;28;20962;-65
2022/08/18 04:26:18;;;;;;;9.93;9.13;;;19.20;99.90;;;;;;5026550;28;20182;-65
2022/08/18 04:28:44;;;;;;;9.53;8.50;;;19.30;99.90;;;;;;5022476;28;20682;-65
2022/08/18 04:31:13;;;;;;;10.07;9.33;;;19.30;99.90;;;;;;5019213;28;20476;-65
2022/08/18 04:33:39;;;;;;;9.23;8.53;;;19.30;99.90;;;;;;5021643;28;20201;-65
2022/08/18 04:36:14;;;;;;;9.40;8.50;;;19.30;99.90;;;;;;5026961;28;21069;-65
2022/08/18 04:38:43;;;;;;;10.10;9.30;;;19.30;99.90;;;;;;5019872;28;20962;-65
2022/08/18 04:41:12;;;;;;;10.10;9.30;;;19.40;99.90;;;;;;5021387;28;20886;-65
2022/08/18 04:43:38;;;;;;;10.93;10.13;;;19.30;99.90;;;;;;5019984;28;20644;-66
2022/08/18 04:46:05;;;;;;;10.60;9.80;;;19.30;99.90;;;;;;5029186;28;20456;-65
2022/08/18 04:48:33;;;;;;;10.50;9.63;;;19.40;99.90;;;;;;5028195;28;20854;-66
2022/08/18 04:51:07;;;;;;;9.40;8.70;;;19.40;99.90;;;;;;5025513;28;20445;-65
2022/08/18 04:53:45;;;;;;;9.23;8.63;;;19.40;99.90;;;;;;5028691;28;20437;-66
2022/08/18 04:56:28;;;;;;;11.43;10.53;;;19.40;99.90;;;;;;5020626;28;20440;-65
2022/08/18 04:59:05;;;;;;;9.83;8.93;;;19.50;99.90;;;;;;5027350;28;20452;-66
2022/08/18 05:01:34;;;;;;;9.37;8.67;;;19.60;99.90;;;;;;5026289;28;20432;-65
2022/08/18 05:04:00;;;;;;;9.90;9.20;;;19.70;99.90;;;;;;5026424;28;20851;-66
2022/08/18 05:06:27;;;;;;;10.13;9.33;;;19.80;99.90;;;;;;5023532;28;20506;-65
2022/08/18 05:08:55;;;;;;;10.70;9.70;;;19.90;99.90;;;;;;5026429;28;20504;-65
2022/08/18 05:11:23;;;;;;;10.10;9.33;;;20.00;99.90;;;;;;5029055;28;20520;-65
2022/08/18 05:13:51;;;;;;;9.57;8.87;;;20.10;99.90;;;;;;5019162;28;20433;-65
2022/08/18 05:16:16;;;;;;;9.50;8.70;;;20.20;99.90;;;;;;5025498;28;20428;-66
2022/08/18 05:18:42;;;;;;;10.20;9.40;;;20.30;99.90;;;;;;5027967;28;20436;-65
2022/08/18 05:21:13;;;;;;;10.37;9.50;;;20.30;99.90;;;;;;5029737;28;20217;-65
2022/08/18 05:23:40;;;;;;;10.00;9.10;;;20.40;99.90;;;;;;5023926;28;20625;-66
2022/08/18 05:26:06;;;;;;;10.30;9.33;;;20.30;99.90;;;;;;5033445;28;20440;-65
2022/08/18 05:28:35;;;;;;;10.40;9.53;;;20.20;99.90;;;;;;5029868;28;20536;-66
2022/08/18 05:31:17;;;;;;;9.73;8.93;;;20.30;99.90;;;;;;5032629;28;20182;-65
2022/08/18 05:33:44;;;;;;;9.57;8.80;;;20.50;99.90;;;;;;5033349;28;20443;-66
2022/08/18 05:36:48;;;;;;;9.73;8.93;;;20.70;99.90;;;;;;5033388;28;21031;-65
2022/08/18 05:39:28;;;;;;;10.10;9.30;;;20.90;99.90;;;;;;5028038;28;20475;-65
2022/08/18 05:42:16;;;;;;;9.73;9.03;;;21.20;99.90;;;;;;5029286;28;20441;-66
2022/08/18 05:44:45;;;;;;;10.40;9.03;;;21.40;99.90;;;;;;5029830;28;20436;-65
2022/08/18 05:47:35;;;;;;;10.13;9.43;;;21.50;99.90;;;;;;5029659;28;20479;-65
2022/08/18 05:50:11;;;;;;;9.47;8.73;;;21.60;99.90;;;;;;5025449;28;20954;-65
2022/08/18 05:52:47;;;;;;;9.40;8.50;;;21.60;99.90;;;;;;5029730;28;20988;-65
2022/08/18 05:58:14;;;;;;;8.97;8.17;;;21.60;99.90;;;;;;5029644;28;20519;-65
2022/08/18 06:00:51;;;;;;;9.17;8.40;;;21.60;99.90;;;;;;5030393;28;20510;-65
2022/08/18 06:03:28;;;;;;;9.83;9.13;;;21.60;99.90;;;;;;5017526;28;20468;-66
2022/08/18 06:06:00;;;;;;;12.90;11.90;;;21.60;99.90;;;;;;5015171;28;20508;-66
2022/08/18 06:08:39;;;;;;;10.30;9.40;;;21.60;99.90;;;;;;5021920;28;20456;-66
2022/08/18 06:11:04;;;;;;;9.60;8.90;;;21.50;99.90;;;;;;5019032;28;20459;-65
2022/08/18 06:13:37;;;;;;;9.17;8.27;;;21.40;99.90;;;;;;5023442;28;20444;-65
2022/08/18 06:16:17;;;;;;;10.60;9.80;;;21.40;99.90;;;;;;5006841;28;20195;-65
2022/08/18 06:19:34;;;;;;;9.50;8.80;;;21.50;99.90;;;;;;5019294;28;20456;-66
2022/08/18 06:22:18;;;;;;;8.93;8.23;;;21.50;99.90;;;;;;4958714;28;20450;-66
2022/08/18 06:24:56;;;;;;;9.37;8.77;;;21.50;99.90;;;;;;5026741;28;20445;-65
2022/08/18 06:27:43;;;;;;;9.50;8.80;;;21.70;99.90;;;;;;5016138;28;20488;-68
2022/08/18 06:30:22;;;;;;;9.60;8.83;;;21.60;99.90;;;;;;5018212;28;20444;-68
2022/08/18 06:32:59;;;;;;;9.17;8.27;;;21.80;99.90;;;;;;5022330;28;20433;-68
2022/08/18 06:35:33;;;;;;;9.50;8.80;;;21.90;99.90;;;;;;5018631;28;20792;-68
2022/08/18 06:41:15;;;;;;;9.80;9.00;;;21.70;99.90;;;;;;5025224;28;20522;-68
2022/08/18 06:43:57;;;;;;;9.43;8.73;;;22.00;99.90;;;;;;5023368;28;20438;-67
2022/08/18 06:46:32;;;;;;;9.40;8.60;;;22.20;99.90;;;;;;5020093;28;20446;-67
2022/08/18 06:49:04;;;;;;;8.77;8.13;;;22.40;99.90;;;;;;5018165;28;20437;-68
2022/08/18 06:51:30;;;;;;;8.70;8.00;;;22.60;99.90;;;;;;5022657;28;20441;-68
2022/08/18 06:53:57;;;;;;;9.43;8.63;;;22.80;99.90;;;;;;5018792;28;20809;-68
2022/08/18 06:58:54;;;;;;;8.77;8.13;;;22.60;99.90;;;;;;5043700;28;20479;-67
2022/08/18 07:01:22;;;;;;;10.17;9.20;;;22.70;99.90;;;;;;5044447;28;20447;-67
2022/08/18 07:03:55;;;;;;;10.00;9.30;;;22.80;99.90;;;;;;5045530;28;20437;-67
2022/08/18 07:06:21;;;;;;;9.57;8.83;;;23.00;99.90;;;;;;5042989;28;20432;-68
2022/08/18 07:08:48;;;;;;;9.10;8.50;;;23.00;99.90;;;;;;5027006;28;20452;-67
2022/08/18 07:11:29;;;;;;;10.00;9.10;;;23.10;99.90;;;;;;5025044;28;20189;-68
2022/08/18 07:14:10;;;;;;;8.93;8.33;;;22.90;99.90;;;;;;5020327;28;20539;-68
2022/08/18 07:16:36;;;;;;;9.87;8.97;;;22.80;99.90;;;;;;5026218;28;20444;-68
2022/08/18 07:19:10;;;;;;;9.57;8.97;;;22.30;99.90;;;;;;5022133;28;20452;-68
2022/08/18 07:21:39;;;;;;;8.97;8.17;;;21.90;99.90;;;;;;5028227;28;20448;-68
2022/08/18 07:24:41;;;;;;;9.37;8.57;;;21.90;99.90;;;;;;5022695;28;20434;-67
2022/08/18 07:27:12;;;;;;;9.07;8.27;;;21.80;99.90;;;;;;5009268;28;21444;-68
2022/08/18 07:29:56;;;;;;;10.47;9.57;;;21.80;99.90;;;;;;5027536;28;20519;-68
2022/08/18 07:32:23;;;;;;;8.90;8.30;;;21.60;99.90;;;;;;5024684;28;20440;-68
2022/08/18 07:34:56;;;;;;;9.40;8.70;;;21.60;99.90;;;;;;5032030;28;20456;-68
2022/08/18 07:37:35;;;;;;;9.33;8.20;;;21.70;99.90;;;;;;5028006;28;20928;-68
2022/08/18 07:40:40;;;;;;;9.03;8.23;;;21.70;99.90;;;;;;5022017;28;20855;-68
2022/08/18 07:43:37;;;;;;;8.93;8.23;;;21.60;99.90;;;;;;5018626;28;20448;-68
2022/08/18 07:46:12;;;;;;;8.70;7.97;;;21.70;99.90;;;;;;5033757;28;20529;-68
2022/08/18 07:48:39;;;;;;;9.73;8.93;;;21.80;99.90;;;;;;5011225;28;21324;-68
2022/08/18 07:51:17;;;;;;;10.47;9.70;;;21.90;99.90;;;;;;5029428;28;20514;-68
2022/08/18 07:54:00;;;;;;;10.23;9.50;;;21.80;99.90;;;;;;5023487;28;20526;-68
2022/08/18 07:56:52;;;;;;;9.17;8.57;;;22.00;99.90;;;;;;5028354;28;20959;-68
2022/08/18 07:59:29;;;;;;;9.13;8.33;;;22.00;99.90;;;;;;5032686;28;20806;-68
2022/08/18 08:02:15;;;;;;;10.60;9.80;;;22.10;99.90;;;;;;5018044;28;20436;-68
2022/08/18 08:04:58;;;;;;;9.40;8.70;;;22.00;99.90;;;;;;5023586;28;20535;-67
2022/08/18 08:07:30;;;;;;;8.90;8.20;;;21.90;99.90;;;;;;5033108;28;20463;-69
2022/08/18 08:10:23;;;;;;;8.97;8.37;;;21.80;99.90;;;;;;5024487;28;20445;-70
2022/08/18 08:13:15;;;;;;;10.10;9.27;;;21.90;99.90;;;;;;5021011;28;20819;-70
2022/08/18 08:15:50;;;;;;;9.40;8.57;;;22.00;99.90;;;;;;5022828;28;20447;-70
2022/08/18 08:18:39;;;;;;;8.77;8.10;;;22.20;99.90;;;;;;5023758;28;20463;-70
2022/08/18 08:21:09;;;;;;;9.47;8.77;;;22.50;99.90;;;;;;5020452;28;20469;-72
2022/08/18 08:23:58;;;;;;;9.23;8.57;;;22.60;99.90;;;;;;5024043;28;20475;-68
2022/08/18 08:26:23;;;;;;;9.33;8.60;;;22.80;99.90;;;;;;5022129;28;20440;-67
2022/08/18 08:29:10;;;;;;;7.87;7.27;;;23.10;99.90;;;;;;5018516;28;20449;-68
2022/08/18 08:31:59;;;;;;;8.50;7.90;;;23.40;99.90;;;;;;5035160;28;20671;-67
2022/08/18 08:34:33;;;;;;;8.77;8.00;;;23.60;99.90;;;;;;5018086;28;20801;-68
2022/08/18 08:37:04;;;;;;;8.30;7.60;;;23.90;99.90;;;;;;5029524;28;20460;-68
2022/08/18 08:39:42;;;;;;;10.63;9.73;;;24.10;99.90;;;;;;5021025;28;20782;-67
2022/08/18 08:42:36;;;;;;;9.30;8.60;;;24.30;99.90;;;;;;5013493;28;20452;-67
2022/08/18 08:45:08;;;;;;;8.90;8.00;;;24.70;99.90;;;;;;5019564;28;20457;-64
2022/08/18 08:47:34;;;;;;;10.53;9.73;;;24.80;99.90;;;;;;5025268;28;20463;-64
2022/08/18 08:50:07;;;;;;;9.27;8.47;;;25.50;99.90;;;;;;5020336;28;20444;-65
2022/08/18 08:52:52;;;;;;;8.90;8.23;;;26.20;99.90;;;;;;5025203;28;20539;-65
2022/08/18 08:55:24;;;;;;;11.07;8.43;;;26.40;99.90;;;;;;5024196;28;20457;-64
2022/08/18 08:58:15;;;;;;;8.83;8.23;;;26.30;99.90;;;;;;5024813;28;20471;-64
2022/08/18 09:00:41;;;;;;;9.60;8.70;;;26.30;99.90;;;;;;5026646;28;20855;-65
2022/08/18 09:03:11;;;;;;;8.80;8.00;;;26.50;99.90;;;;;;5030075;28;20836;-64
2022/08/18 09:05:59;;;;;;;9.57;8.80;;;26.70;99.90;;;;;;5033185;28;20436;-64
2022/08/18 09:08:54;;;;;;;9.40;8.03;;;26.80;99.90;;;;;;5026735;28;20853;-65
2022/08/18 09:11:36;;;;;;;10.30;8.57;;;26.90;99.90;;;;;;5029870;28;20450;-65
2022/08/18 09:14:32;;;;;;;8.70;7.90;;;27.80;99.90;;;;;;5038115;28;20519;-65
2022/08/18 09:17:09;;;;;;;8.20;7.47;;;28.60;99.90;;;;;;5027155;28;20464;-65
2022/08/18 09:20:17;;;;;;;7.50;7.00;;;29.10;99.90;;;;;;5025363;28;20467;-65
2022/08/18 09:22:50;;;;;;;9.20;8.50;;;29.60;99.90;;;;;;5030003;28;20979;-65
2022/08/18 09:25:51;;;;;;;9.40;8.60;;;29.80;99.90;;;;;;5022415;28;20434;-64
2022/08/18 09:29:05;;;;;;;8.50;7.90;;;30.30;99.90;;;;;;5003823;28;21015;-65
2022/08/18 09:31:32;;;;;;;8.23;7.53;;;30.90;99.30;;;;;;4976289;28;20467;-65
2022/08/18 09:34:04;;;;;;;9.13;8.33;;;31.00;98.80;;;;;;5022422;28;20433;-66
2022/08/18 09:36:40;;;;;;;8.53;7.83;;;31.20;98.00;;;;;;5021572;28;20468;-66
2022/08/18 09:42:27;;;;;;;8.60;8.00;;;30.70;97.40;;;;;;5022046;28;20837;-65
2022/08/18 09:44:54;;;;;;;10.40;9.60;;;29.70;99.20;;;;;;5022894;28;20957;-64
2022/08/18 09:47:19;;;;;;;8.47;7.87;;;29.50;99.60;;;;;;5034890;28;20492;-65
2022/08/18 09:49:54;;;;;;;9.57;8.70;;;30.00;99.20;;;;;;5027200;28;20488;-65
2022/08/18 09:52:25;;;;;;;9.40;8.70;;;31.00;98.00;;;;;;5028245;28;20200;-65
2022/08/18 09:54:52;;;;;;;8.10;7.50;;;31.20;96.90;;;;;;5018667;28;20959;-65
2022/08/18 09:57:19;;;;;;;10.50;9.50;;;31.10;96.90;;;;;;5024671;28;20963;-65
2022/08/18 09:59:44;;;;;;;10.40;9.50;;;31.20;96.20;;;;;;5024089;28;20504;-66
2022/08/18 10:02:34;;;;;;;10.03;9.13;;;30.90;96.20;;;;;;5033236;28;20490;-66
2022/08/18 10:05:21;;;;;;;9.53;8.93;;;30.40;96.80;;;;;;5025644;28;20566;-66
2022/08/18 10:07:57;;;;;;;10.37;9.67;;;30.20;96.90;;;;;;5020580;28;20499;-66
2022/08/18 10:10:40;;;;;;;10.63;9.73;;;29.90;97.20;;;;;;5031018;28;20929;-66
2022/08/18 10:13:06;;;;;;;9.33;8.60;;;29.80;97.80;;;;;;5023297;28;20453;-66
2022/08/18 10:15:44;;;;;;;10.10;9.30;;;30.10;97.70;;;;;;5034223;28;20464;-66
2022/08/18 10:18:37;;;;;;;9.80;8.90;;;31.00;97.10;;;;;;5027063;28;20206;-66
2022/08/18 10:21:20;;;;;;;10.27;9.47;;;32.00;95.40;;;;;;5026557;28;20976;-66
2022/08/18 10:24:04;;;;;;;9.40;8.60;;;32.00;94.40;;;;;;5024910;28;20431;-66
2022/08/18 10:26:29;;;;;;;10.23;9.40;;;32.40;93.60;;;;;;5021123;28;20429;-66
2022/08/18 10:29:06;;;;;;;10.23;9.53;;;33.90;91.80;;;;;;5021069;28;20469;-66
2022/08/18 10:31:54;;;;;;;10.17;9.50;;;35.30;90.00;;;;;;5022247;28;20663;-66
2022/08/18 10:34:41;;;;;;;9.97;9.37;;;36.30;85.20;;;;;;5030116;28;20936;-67
2022/08/18 10:37:12;;;;;;;24.80;22.93;;;36.70;81.40;;;;;;5020883;28;20869;-66
2022/08/18 10:39:38;;;;;;;35.47;32.80;;;37.40;78.10;;;;;;5022483;28;20549;-66
2022/08/18 10:42:17;;;;;;;13.70;12.70;;;37.50;76.10;;;;;;5021261;28;21650;-66
2022/08/18 10:44:49;;;;;;;12.00;10.90;;;36.80;74.50;;;;;;5018669;28;20185;-65
2022/08/18 10:47:28;;;;;;;19.23;17.80;;;36.70;73.90;;;;;;5036607;28;20484;-65
2022/08/18 10:49:54;;;;;;;10.37;9.67;;;38.00;71.90;;;;;;5026751;28;20443;-65
2022/08/18 10:52:42;;;;;;;8.73;8.03;;;38.70;69.60;;;;;;5026150;28;20441;-64
2022/08/18 10:55:23;;;;;;;10.00;9.40;;;38.90;66.00;;;;;;5022791;28;20442;-64
2022/08/18 10:58:07;;;;;;;10.93;10.23;;;38.10;67.60;;;;;;5021941;28;20484;-65
2022/08/18 11:00:58;;;;;;;11.00;9.70;;;37.40;66.80;;;;;;5025738;28;20472;-66
2022/08/18 11:04:07;;;;;;;10.93;10.13;;;35.50;69.30;;;;;;5023245;28;20434;-66
2022/08/18 11:06:49;;;;;;;10.30;9.40;;;34.70;72.60;;;;;;5013238;28;20445;-66
2022/08/18 11:09:26;;;;;;;9.57;8.83;;;35.50;71.10;;;;;;5023103;28;20520;-66
2022/08/18 11:11:54;;;;;;;9.80;9.10;;;36.00;69.70;;;;;;5030133;28;20436;-66
2022/08/18 11:14:34;;;;;;;11.60;10.90;;;35.50;68.70;;;;;;5027969;28;20441;-66
2022/08/18 11:17:09;;;;;;;9.87;9.27;;;34.70;70.30;;;;;;5014794;28;20460;-66
2022/08/18 11:19:38;;;;;;;11.10;10.30;;;34.40;71.00;;;;;;5024886;28;20467;-66
2022/08/18 11:22:04;;;;;;;11.80;11.10;;;34.10;72.00;;;;;;5030491;28;20441;-66
2022/08/18 11:24:34;;;;;;;11.17;10.40;;;33.20;73.80;;;;;;5019801;28;20443;-64
2022/08/18 11:27:15;;;;;;;14.37;10.27;;;32.50;75.80;;;;;;5023902;28;20546;-65
2022/08/18 11:29:42;;;;;;;18.37;10.83;;;32.10;77.00;;;;;;5022794;28;20471;-65
2022/08/18 11:32:10;;;;;;;20.47;11.50;;;30.90;80.40;;;;;;5015686;28;20573;-62
2022/08/18 11:34:47;;;;;;;10.70;10.00;;;31.00;81.90;;;;;;5022797;28;20811;-64
2022/08/18 11:37:30;;;;;;;10.73;9.97;;;32.20;80.30;;;;;;5016903;28;20453;-63
2022/08/18 11:39:59;;;;;;;11.43;10.60;;;32.50;78.30;;;;;;5020313;28;20469;-65
2022/08/18 11:42:37;;;;;;;10.67;9.97;;;32.30;77.90;;;;;;5027307;28;20440;-64
2022/08/18 11:45:17;;;;;;;10.27;9.67;;;31.60;79.40;;;;;;5022358;28;20900;-65
2022/08/18 11:48:17;;;;;;;12.63;10.87;;;31.40;80.80;;;;;;5038424;28;20439;-65
2022/08/18 11:51:01;;;;;;;11.43;10.63;;;32.30;79.20;;;;;;5024496;28;20812;-65
2022/08/18 11:53:51;;;;;;;11.97;11.20;;;33.20;76.30;;;;;;5034053;28;20437;-65
2022/08/18 11:56:20;;;;;;;11.90;11.00;;;32.60;77.20;;;;;;5031578;28;20444;-65
2022/08/18 11:58:48;;;;;;;11.37;10.37;;;32.50;78.30;;;;;;5019965;28;20487;-65
2022/08/18 12:01:37;;;;;;;12.00;11.10;;;33.30;76.00;;;;;;5014555;28;20461;-65
2022/08/18 12:04:08;;;;;;;11.20;10.20;;;34.10;74.00;;;;;;5036789;28;20936;-65
2022/08/18 12:06:35;;;;;;;11.77;10.97;;;34.20;73.30;;;;;;5017653;28;20456;-65
2022/08/18 12:09:15;;;;;;;12.17;11.37;;;35.30;71.70;;;;;;5021610;28;20535;-65
2022/08/18 12:11:56;;;;;;;11.43;10.73;;;34.70;70.90;;;;;;5021153;28;20526;-65
2022/08/18 12:14:25;;;;;;;12.07;11.17;;;34.90;70.30;;;;;;5024254;28;20437;-65
2022/08/18 12:16:52;;;;;;;12.60;10.80;;;35.70;69.30;;;;;;5026580;28;20526;-65
2022/08/18 12:19:18;;;;;;;13.40;12.40;;;35.30;67.90;;;;;;5025502;28;20448;-65
2022/08/18 12:21:47;;;;;;;11.00;10.20;;;34.10;68.90;;;;;;5029462;28;20917;-65
2022/08/18 12:24:31;;;;;;;13.77;12.67;;;34.10;70.60;;;;;;5031567;28;20486;-65
2022/08/18 12:26:58;;;;;;;10.97;9.97;;;34.10;69.50;;;;;;5025793;28;20828;-65
2022/08/18 12:29:25;;;;;;;12.87;11.80;;;34.70;69.20;;;;;;5033451;28;20485;-65
2022/08/18 12:31:53;;;;;;;12.70;11.90;;;34.50;69.60;;;;;;5039507;28;20447;-64
2022/08/18 12:34:25;;;;;;;11.50;10.60;;;34.10;69.00;;;;;;5033112;28;20440;-65
2022/08/18 12:36:53;;;;;;;9.87;9.27;;;35.10;68.50;;;;;;5027819;28;21022;-64
2022/08/18 12:39:18;;;;;;;10.87;10.07;;;36.40;65.40;;;;;;5023347;28;20449;-66
2022/08/18 12:41:44;;;;;;;10.77;9.90;;;35.80;63.20;;;;;;5024740;28;20597;-66
2022/08/18 12:44:10;;;;;;;11.60;10.50;;;35.70;63.20;;;;;;5026785;28;20186;-66
2022/08/18 12:46:36;;;;;;;12.10;11.40;;;35.60;63.10;;;;;;5021085;28;20647;-65
2022/08/18 12:49:03;;;;;;;11.87;10.67;;;35.10;64.00;;;;;;5029052;28;20447;-66
2022/08/18 12:51:29;;;;;;;10.73;10.00;;;35.60;64.40;;;;;;5030206;28;20184;-65
2022/08/18 12:53:55;;;;;;;11.77;11.07;;;37.00;62.30;;;;;;5021760;28;20437;-65
2022/08/18 12:56:22;;;;;;;11.30;10.60;;;37.70;60.80;;;;;;5026310;28;20265;-65
2022/08/18 12:58:48;;;;;;;11.03;9.80;;;38.80;58.50;;;;;;5017929;28;20217;-66
2022/08/18 13:01:17;;;;;;;10.27;9.60;;;39.80;57.40;;;;;;5030130;28;21020;-66
2022/08/18 13:03:44;;;;;;;9.40;8.70;;;40.30;55.20;;;;;;5026758;28;20456;-65
2022/08/18 13:06:10;;;;;;;9.50;8.90;;;39.40;55.60;;;;;;5028123;28;20892;-67
2022/08/18 13:08:36;;;;;;;10.70;9.20;;;37.50;56.60;;;;;;5024599;28;20522;-66
2022/08/18 13:11:02;;;;;;;9.33;8.63;;;37.10;57.40;;;;;;5020367;28;20449;-66
2022/08/18 13:13:28;;;;;;;10.23;9.43;;;36.00;58.20;;;;;;5014815;28;20233;-66
2022/08/18 13:15:54;;;;;;;9.90;9.30;;;35.00;59.00;;;;;;5027431;28;20888;-67
2022/08/18 13:18:19;;;;;;;10.07;9.00;;;35.30;59.00;;;;;;5025211;28;20218;-67
2022/08/18 13:20:45;;;;;;;10.40;8.73;;;36.00;59.10;;;;;;5032200;28;20464;-66
2022/08/18 13:23:10;;;;;;;9.53;8.93;;;36.80;58.00;;;;;;5025181;28;20190;-66
2022/08/18 13:25:37;;;;;;;9.27;8.70;;;37.50;56.60;;;;;;5022555;28;20186;-66